Time;durP1;ratioP1;P1;durP2;ratioP2;P2;SDS_P1;SDS_P2;PMS_P1;PMS_P2;Temp;Humidity;BMP_temperature;BMP_pressure;BME280_temperature;BME280_humidity;BME280_pressure;Samples;Min_cycle;Max_cycle;Signal;HPM_P1;HPM_P2
2021/04/25 00:03:10;;;;;;;8.90;2.08;;;;;;;-146.18;100.00;67994.34;9986207;29;20075;-69
2021/04/25 00:08:06;;;;;;;10.45;2.72;;;;;;;-146.18;100.00;67994.34;9992351;29;20052;-69
2021/04/25 00:13:02;;;;;;;8.13;2.00;;;;;;;-146.18;100.00;67994.34;9988962;29;20068;-69
2021/04/25 00:17:58;;;;;;;8.32;2.00;;;;;;;-146.18;100.00;67994.34;9979397;29;20082;-68
2021/04/25 00:22:54;;;;;;;8.70;1.63;;;;;;;-146.18;100.00;67994.34;9991095;29;20075;-69
2021/04/25 00:27:50;;;;;;;7.80;2.00;;;;;;;-146.18;100.00;67994.34;9981900;29;20048;-68
2021/04/25 00:32:47;;;;;;;8.50;2.47;;;;;;;-146.18;100.00;67994.34;9990829;29;20092;-69
2021/04/25 00:37:44;;;;;;;9.05;1.98;;;;;;;-146.18;100.00;67994.34;9978303;29;20073;-68
2021/04/25 00:42:40;;;;;;;9.05;1.58;;;;;;;-146.18;100.00;67994.34;9990980;29;20379;-69
2021/04/25 00:47:36;;;;;;;11.27;1.98;;;;;;;-146.18;100.00;67994.34;9991518;29;20052;-68
2021/04/25 00:52:44;;;;;;;8.38;1.83;;;;;;;-146.18;100.00;67994.34;9989568;29;20044;-67
2021/04/25 00:57:40;;;;;;;9.77;2.00;;;;;;;-146.18;100.00;67994.34;9982456;29;20067;-67
2021/04/25 01:02:37;;;;;;;12.90;2.13;;;;;;;-146.18;100.00;67994.34;9985343;29;20077;-69
2021/04/25 01:07:33;;;;;;;9.57;1.70;;;;;;;-146.18;100.00;67994.34;9984873;29;20052;-67
2021/04/25 01:12:29;;;;;;;7.45;1.33;;;;;;;-146.18;100.00;67994.34;9993006;29;20052;-69
2021/04/25 01:17:26;;;;;;;10.82;2.17;;;;;;;-146.18;100.00;67994.34;9988982;29;20048;-69
2021/04/25 01:22:22;;;;;;;9.30;1.85;;;;;;;-146.18;100.00;67994.34;9968493;29;20043;-69
2021/04/25 01:27:19;;;;;;;10.02;1.80;;;;;;;-146.18;100.00;67994.34;9989947;29;20055;-70
2021/04/25 01:32:15;;;;;;;4.60;1.63;;;;;;;-146.18;100.00;67994.34;9988477;29;20099;-65
2021/04/25 01:37:11;;;;;;;6.38;1.60;;;;;;;-146.18;100.00;67994.34;9989314;29;20056;-65
2021/04/25 01:42:07;;;;;;;7.75;1.42;;;;;;;-146.18;100.00;67994.34;9985651;29;20511;-70
2021/04/25 01:47:03;;;;;;;7.18;1.30;;;;;;;-146.18;100.00;67994.34;9983563;29;20104;-65
2021/04/25 01:51:59;;;;;;;9.25;2.00;;;;;;;-146.18;100.00;67994.34;9985275;29;20395;-67
2021/04/25 01:56:56;;;;;;;5.90;1.70;;;;;;;-146.18;100.00;67994.34;9983028;29;20051;-69
2021/04/25 02:01:52;;;;;;;7.85;1.42;;;;;;;-146.18;100.00;67994.34;9986554;29;20056;-68
2021/04/25 02:06:48;;;;;;;7.53;1.58;;;;;;;-146.18;100.00;67994.34;9987114;29;20052;-67
2021/04/25 02:11:44;;;;;;;11.32;2.75;;;;;;;-146.18;100.00;67994.34;9990903;29;20072;-67
2021/04/25 02:16:40;;;;;;;6.28;1.38;;;;;;;-146.18;100.00;67994.34;9986404;29;20056;-68
2021/04/25 02:21:36;;;;;;;9.10;2.08;;;;;;;-146.18;100.00;67994.34;9988391;29;20479;-67
2021/04/25 02:26:32;;;;;;;13.55;2.30;;;;;;;-146.18;100.00;67994.34;9975547;29;20055;-66
2021/04/25 02:31:28;;;;;;;13.95;3.47;;;;;;;-146.18;100.00;67994.34;9992631;29;20052;-69
2021/04/25 02:36:24;;;;;;;6.40;1.60;;;;;;;-146.18;100.00;67994.34;9992888;29;20054;-68
2021/04/25 02:41:20;;;;;;;7.60;1.60;;;;;;;-146.18;100.00;67994.34;9984172;29;20064;-68
2021/04/25 02:46:16;;;;;;;13.00;1.63;;;;;;;-146.18;100.00;67994.34;9992817;29;20050;-67
2021/04/25 02:51:12;;;;;;;11.00;2.03;;;;;;;-146.18;100.00;67994.34;9996376;29;20510;-65
2021/04/25 02:56:08;;;;;;;12.02;1.80;;;;;;;-146.18;100.00;67994.34;9989389;29;20044;-68
2021/04/25 03:01:04;;;;;;;7.95;1.85;;;;;;;-146.18;100.00;67994.34;9990571;29;20055;-69
2021/04/25 03:06:00;;;;;;;12.27;2.15;;;;;;;-146.18;100.00;67994.34;9991231;29;20491;-68
2021/04/25 03:10:56;;;;;;;7.38;1.88;;;;;;;-146.18;100.00;67994.34;9993645;29;20048;-68
2021/04/25 03:15:52;;;;;;;9.35;1.65;;;;;;;-146.18;100.00;67994.34;9995144;29;20055;-65
2021/04/25 03:20:48;;;;;;;10.07;2.40;;;;;;;-146.18;100.00;67994.34;9994401;29;20052;-68
2021/04/25 03:25:44;;;;;;;12.77;2.53;;;;;;;-146.18;100.00;67994.34;9991685;29;20111;-68
2021/04/25 03:30:40;;;;;;;7.50;1.70;;;;;;;-146.18;100.00;67994.34;9993992;29;20107;-68
2021/04/25 03:35:36;;;;;;;9.30;2.00;;;;;;;-146.18;100.00;67994.34;9990067;29;20044;-68
2021/04/25 03:40:32;;;;;;;11.18;1.80;;;;;;;-146.18;100.00;67994.34;9990182;29;20058;-67
2021/04/25 03:45:28;;;;;;;11.48;2.20;;;;;;;-146.18;100.00;67994.34;9991833;29;20040;-67
2021/04/25 03:50:25;;;;;;;12.27;2.05;;;;;;;-146.18;100.00;67994.34;9988075;29;20099;-69
2021/04/25 03:55:23;;;;;;;12.18;1.80;;;;;;;-146.18;100.00;67994.34;9991892;29;20057;-69
2021/04/25 04:00:20;;;;;;;7.60;1.80;;;;;;;-146.18;100.00;67994.34;9987075;29;20060;-67
2021/04/25 04:05:16;;;;;;;9.80;2.00;;;;;;;-146.18;100.00;67994.34;9992903;29;20406;-68
2021/04/25 04:10:12;;;;;;;11.60;2.03;;;;;;;-146.18;100.00;67994.34;9993507;29;20060;-68
2021/04/25 04:15:09;;;;;;;13.00;2.33;;;;;;;-146.18;100.00;67994.34;9994482;29;20502;-68
2021/04/25 04:20:06;;;;;;;7.63;1.80;;;;;;;-146.18;100.00;67994.34;9986513;29;20638;-69
2021/04/25 04:25:02;;;;;;;6.82;1.90;;;;;;;-146.18;100.00;67994.34;9991372;29;20488;-67
2021/04/25 04:29:58;;;;;;;8.40;2.53;;;;;;;-146.18;100.00;67994.34;9992187;29;20059;-68
2021/04/25 04:34:55;;;;;;;10.55;2.30;;;;;;;-146.18;100.00;67994.34;9983662;29;20062;-69
2021/04/25 04:39:51;;;;;;;15.23;2.38;;;;;;;-146.18;100.00;67994.34;9988260;29;20043;-68
2021/04/25 04:44:47;;;;;;;10.93;1.90;;;;;;;-146.18;100.00;67994.34;9985189;29;20104;-68
2021/04/25 04:49:43;;;;;;;6.50;1.75;;;;;;;-146.18;100.00;67994.34;9984561;29;20048;-67
2021/04/25 04:54:39;;;;;;;9.40;2.10;;;;;;;-146.18;100.00;67994.34;9990537;29;20601;-68
2021/04/25 04:59:35;;;;;;;10.98;2.10;;;;;;;-146.18;100.00;67994.34;9986809;29;20072;-68
2021/04/25 05:04:31;;;;;;;9.10;2.40;;;;;;;-146.18;100.00;67994.34;9991111;29;20052;-67
2021/04/25 05:09:27;;;;;;;8.10;1.98;;;;;;;-146.18;100.00;67994.34;9987822;29;20044;-66
2021/04/25 05:14:24;;;;;;;10.45;2.97;;;;;;;-146.18;100.00;67994.34;9989999;29;20552;-69
2021/04/25 05:19:20;;;;;;;9.85;2.05;;;;;;;-146.18;100.00;67994.34;9986400;29;20111;-68
2021/04/25 05:24:16;;;;;;;10.32;2.38;;;;;;;-146.18;100.00;67994.34;9987540;29;20488;-69
2021/04/25 05:29:12;;;;;;;6.88;2.17;;;;;;;-146.18;100.00;67994.34;9991273;29;20087;-68
2021/04/25 05:34:08;;;;;;;16.27;2.78;;;;;;;-146.18;100.00;67994.34;9990742;29;20079;-68
2021/04/25 05:39:05;;;;;;;13.27;3.22;;;;;;;-146.18;100.00;67994.34;9987400;29;20066;-68
2021/04/25 05:44:01;;;;;;;10.50;2.63;;;;;;;-146.18;100.00;67994.34;9989755;29;20047;-68
2021/04/25 05:48:57;;;;;;;4.47;1.95;;;;;;;-146.18;100.00;67994.34;9982896;29;20104;-69
2021/04/25 05:53:53;;;;;;;10.35;2.35;;;;;;;-146.18;100.00;67994.34;9981768;29;20044;-68
2021/04/25 05:58:50;;;;;;;11.02;1.85;;;;;;;-146.18;100.00;67994.34;9987676;29;20044;-67
2021/04/25 06:03:46;;;;;;;11.98;2.72;;;;;;;-146.18;100.00;67994.34;9984682;29;20076;-68
2021/04/25 06:08:43;;;;;;;7.53;2.20;;;;;;;-146.18;100.00;67994.34;9987827;29;20139;-66
2021/04/25 06:13:39;;;;;;;5.57;1.67;;;;;;;-146.18;100.00;67994.34;9991425;29;20048;-68
2021/04/25 06:18:35;;;;;;;6.45;1.80;;;;;;;-146.18;100.00;67994.34;9986072;29;20112;-68
2021/04/25 06:23:31;;;;;;;11.00;1.75;;;;;;;-146.18;100.00;67994.34;9988465;29;20055;-67
2021/04/25 06:28:28;;;;;;;6.60;1.90;;;;;;;-146.18;100.00;67994.34;9988005;29;20052;-65
2021/04/25 06:33:25;;;;;;;9.70;2.47;;;;;;;-146.18;100.00;67994.34;9981136;29;20803;-69
2021/04/25 06:38:21;;;;;;;9.68;1.70;;;;;;;-146.18;100.00;67994.34;9986934;29;20052;-69
2021/04/25 06:43:18;;;;;;;8.60;1.90;;;;;;;-146.18;100.00;67994.34;9985232;29;20048;-69
2021/04/25 06:48:15;;;;;;;8.20;1.63;;;;;;;-146.18;100.00;67994.34;9985247;29;20070;-67
2021/04/25 06:53:11;;;;;;;7.80;1.58;;;;;;;-146.18;100.00;67994.34;9987062;29;20059;-69
2021/04/25 06:58:08;;;;;;;5.82;1.50;;;;;;;-146.18;100.00;67994.34;9982971;29;20059;-68
2021/04/25 07:03:05;;;;;;;5.07;1.10;;;;;;;-146.18;100.00;67994.34;9984361;29;20056;-68
2021/04/25 07:08:01;;;;;;;5.10;1.35;;;;;;;-146.18;100.00;67994.34;9979379;29;20514;-69
2021/04/25 07:12:57;;;;;;;6.68;1.25;;;;;;;-146.18;100.00;67994.34;9991556;29;20052;-68
2021/04/25 07:17:55;;;;;;;4.47;1.08;;;;;;;-146.18;100.00;67994.34;9991893;29;20048;-68
2021/04/25 07:22:52;;;;;;;7.75;1.13;;;;;;;-146.18;100.00;67994.34;9995584;29;20088;-67
2021/04/25 07:27:47;;;;;;;3.28;0.80;;;;;;;-146.18;100.00;67994.34;9985178;29;20051;-68
2021/04/25 07:32:43;;;;;;;4.82;0.80;;;;;;;-146.18;100.00;67994.34;9993028;29;20044;-67
2021/04/25 07:37:40;;;;;;;2.40;0.80;;;;;;;-146.18;100.00;67994.34;9991436;29;20103;-66
2021/04/25 07:42:37;;;;;;;3.47;0.50;;;;;;;-146.18;100.00;67994.34;9992812;29;20534;-67
2021/04/25 07:47:33;;;;;;;3.78;0.68;;;;;;;-146.18;100.00;67994.34;9989789;29;20104;-67
2021/04/25 07:52:30;;;;;;;1.98;0.60;;;;;;;-146.18;100.00;67994.34;9994585;29;20076;-66
2021/04/25 07:57:26;;;;;;;4.75;0.68;;;;;;;-146.18;100.00;67994.34;9988563;29;20051;-68
2021/04/25 08:02:22;;;;;;;1.45;0.43;;;;;;;-146.18;100.00;67994.34;9992391;29;20135;-68
2021/04/25 08:07:18;;;;;;;2.53;0.88;;;;;;;-146.18;100.00;67994.34;9992576;29;20063;-68
2021/04/25 08:12:14;;;;;;;2.85;0.60;;;;;;;-146.18;100.00;67994.34;9994319;29;20055;-68
2021/04/25 08:17:10;;;;;;;3.75;1.00;;;;;;;-146.18;100.00;67994.34;9987139;29;20135;-67
2021/04/25 08:22:07;;;;;;;3.72;1.23;;;;;;;-146.18;100.00;67994.34;9992080;29;20040;-67
2021/04/25 08:27:03;;;;;;;2.88;0.82;;;;;;;-146.18;100.00;67994.34;9990033;29;20142;-68
2021/04/25 08:31:59;;;;;;;3.22;0.60;;;;;;;-146.18;100.00;67994.34;9989666;29;20579;-68
2021/04/25 08:36:55;;;;;;;2.00;0.40;;;;;;;-146.18;100.00;67994.34;9985527;29;20455;-67
2021/04/25 08:41:54;;;;;;;4.13;0.90;;;;;;;-146.18;100.00;67994.34;9989367;29;20060;-68
2021/04/25 08:46:52;;;;;;;2.85;0.82;;;;;;;-146.18;100.00;67994.34;9986703;29;20051;-67
2021/04/25 08:51:48;;;;;;;2.22;0.70;;;;;;;-146.18;100.00;67994.34;9982367;29;20056;-69
2021/04/25 08:56:45;;;;;;;2.22;0.60;;;;;;;-146.18;100.00;67994.34;9983519;29;20079;-69
2021/04/25 09:01:40;;;;;;;2.60;0.40;;;;;;;-146.18;100.00;67994.34;9989313;29;20044;-68
2021/04/25 09:07:00;;;;;;;3.53;0.80;;;;;;;-146.18;100.00;67994.34;9987802;29;20459;-68
2021/04/25 09:11:55;;;;;;;4.65;1.00;;;;;;;-146.18;100.00;67994.34;9991013;29;20052;-65
2021/04/25 09:16:54;;;;;;;3.53;0.90;;;;;;;-146.18;100.00;67994.34;9988066;29;20139;-66
2021/04/25 09:21:55;;;;;;;4.25;0.50;;;;;;;-146.18;100.00;67994.34;9991589;29;20074;-67
2021/04/25 09:26:51;;;;;;;2.33;0.50;;;;;;;-146.18;100.00;67994.34;9987444;29;20075;-67
2021/04/25 09:31:48;;;;;;;3.45;0.57;;;;;;;-146.18;100.00;67994.34;9989131;29;20047;-66
2021/04/25 09:36:44;;;;;;;2.58;0.80;;;;;;;-146.18;100.00;67994.34;9987154;29;20500;-66
2021/04/25 09:41:40;;;;;;;7.20;1.00;;;;;;;-146.18;100.00;67994.34;9985483;29;20051;-66
2021/04/25 09:46:50;;;;;;;2.72;0.43;;;;;;;-146.18;100.00;67994.34;9988685;29;20566;-67
2021/04/25 09:51:46;;;;;;;3.97;0.95;;;;;;;-146.18;100.00;67994.34;9988509;29;20044;-66
2021/04/25 09:56:44;;;;;;;1.80;0.60;;;;;;;-146.18;100.00;67994.34;9987337;29;20052;-67
2021/04/25 10:01:42;;;;;;;2.38;0.50;;;;;;;-146.18;100.00;67994.34;9987739;29;20462;-67
2021/04/25 10:06:49;;;;;;;2.80;0.60;;;;;;;-146.18;100.00;67994.34;9985050;29;20048;-66
2021/04/25 10:11:55;;;;;;;1.63;0.60;;;;;;;-146.18;100.00;67994.34;9987611;29;20115;-66
2021/04/25 10:16:52;;;;;;;2.25;0.60;;;;;;;-146.18;100.00;67994.34;9986207;29;20049;-66
2021/04/25 10:21:49;;;;;;;1.30;0.50;;;;;;;-146.18;100.00;67994.34;9986597;29;20048;-67
2021/04/25 10:26:52;;;;;;;2.85;0.80;;;;;;;-146.18;100.00;67994.34;9986796;29;20375;-65
2021/04/25 10:31:55;;;;;;;2.83;0.43;;;;;;;-146.18;100.00;67994.34;9986589;29;20418;-66
2021/04/25 10:36:51;;;;;;;3.08;0.60;;;;;;;-146.18;100.00;67994.34;9985174;29;20082;-66
2021/04/25 10:41:48;;;;;;;3.13;0.50;;;;;;;-146.18;100.00;67994.34;9984968;29;20066;-66
2021/04/25 10:46:52;;;;;;;1.67;0.60;;;;;;;-146.18;100.00;67994.34;9987613;29;20044;-66
2021/04/25 10:51:48;;;;;;;2.50;0.57;;;;;;;-146.18;100.00;67994.34;9989391;29;20044;-66
2021/04/25 10:57:07;;;;;;;1.33;0.40;;;;;;;-146.18;100.00;67994.34;9997552;29;20426;-66
2021/04/25 11:02:03;;;;;;;1.77;0.70;;;;;;;-146.18;100.00;67994.34;9991479;29;20084;-66
2021/04/25 11:07:38;;;;;;;1.25;0.30;;;;;;;-146.18;100.00;67994.34;9992220;29;20138;-66
2021/04/25 11:12:36;;;;;;;1.80;0.50;;;;;;;-146.18;100.00;67994.34;9992860;29;20104;-66
2021/04/25 11:17:33;;;;;;;3.10;0.60;;;;;;;-146.18;100.00;67994.34;9994401;29;20135;-66
2021/04/25 11:22:43;;;;;;;2.40;0.50;;;;;;;-146.18;100.00;67994.34;9990310;29;20107;-68
2021/04/25 11:27:39;;;;;;;1.23;0.40;;;;;;;-146.18;100.00;67994.34;9997307;29;20076;-68
2021/04/25 11:32:37;;;;;;;1.15;0.40;;;;;;;-146.18;100.00;67994.34;9995618;29;20087;-68
2021/04/25 11:37:33;;;;;;;2.08;0.68;;;;;;;-146.18;100.00;67994.34;9987254;29;20822;-68
2021/04/25 11:42:44;;;;;;;1.63;0.73;;;;;;;-146.18;100.00;67994.34;9993317;29;20052;-67
2021/04/25 11:47:59;;;;;;;1.15;0.40;;;;;;;-146.18;100.00;67994.34;9996112;29;20116;-67
2021/04/25 11:52:55;;;;;;;4.85;1.10;;;;;;;-146.18;100.00;67994.34;9994930;29;20056;-66
2021/04/25 11:57:52;;;;;;;0.95;0.40;;;;;;;-146.18;100.00;67994.34;9992005;29;20095;-67
2021/04/25 12:02:52;;;;;;;1.40;0.40;;;;;;;-146.18;100.00;67994.34;9995028;29;20044;-67
2021/04/25 12:07:59;;;;;;;3.83;0.70;;;;;;;-146.18;100.00;67994.34;9990098;29;20056;-67
2021/04/25 12:13:01;;;;;;;0.80;0.35;;;;;;;-146.18;100.00;67994.34;9988418;29;20060;-67
2021/04/25 12:17:59;;;;;;;1.75;0.47;;;;;;;-146.18;100.00;67994.34;9975986;29;20052;-68
2021/04/25 12:22:55;;;;;;;1.23;0.30;;;;;;;-146.18;100.00;67994.34;9992513;29;20052;-69
2021/04/25 12:27:54;;;;;;;2.42;0.80;;;;;;;-146.18;100.00;67994.34;9988054;29;20067;-67
2021/04/25 12:33:10;;;;;;;2.15;0.68;;;;;;;-146.18;100.00;67994.34;9990614;29;20056;-69
2021/04/25 12:38:26;;;;;;;1.73;0.50;;;;;;;-146.18;100.00;67994.34;9987861;29;20048;-67
2021/04/25 12:43:23;;;;;;;1.08;0.35;;;;;;;-146.18;100.00;67994.34;9988698;29;20075;-69
2021/04/25 12:48:28;;;;;;;2.53;0.38;;;;;;;-146.18;100.00;67994.34;9983388;29;20091;-67
2021/04/25 12:53:24;;;;;;;0.90;0.30;;;;;;;-146.18;100.00;67994.34;9990132;29;20056;-68
2021/04/25 12:58:20;;;;;;;1.50;0.40;;;;;;;-146.18;100.00;67994.34;9990249;29;20500;-68
2021/04/25 13:03:32;;;;;;;1.27;0.20;;;;;;;-146.18;100.00;67994.34;9989658;29;20044;-69
2021/04/25 13:08:31;;;;;;;1.05;0.40;;;;;;;-146.18;100.00;67994.34;9988278;29;20044;-69
2021/04/25 13:13:27;;;;;;;2.38;0.55;;;;;;;-146.18;100.00;67994.34;9990094;29;20048;-68
2021/04/25 13:18:23;;;;;;;2.83;0.30;;;;;;;-146.18;100.00;67994.34;9989576;29;20047;-68
2021/04/25 13:23:30;;;;;;;1.23;0.30;;;;;;;-146.18;100.00;67994.34;9989476;29;20056;-65
2021/04/25 13:28:28;;;;;;;1.30;0.40;;;;;;;-146.18;100.00;67994.34;9975558;29;20052;-67
2021/04/25 13:33:26;;;;;;;4.05;0.50;;;;;;;-146.18;100.00;67994.34;9985778;29;20048;-67
2021/04/25 13:38:24;;;;;;;1.60;0.40;;;;;;;-146.18;100.00;67994.34;9978301;29;20570;-68
2021/04/25 13:43:25;;;;;;;1.37;0.40;;;;;;;-146.18;100.00;67994.34;9980092;29;20045;-68
2021/04/25 13:48:21;;;;;;;1.70;0.32;;;;;;;-146.18;100.00;67994.34;9983044;29;20056;-68
2021/04/25 13:53:17;;;;;;;1.00;0.38;;;;;;;-146.18;100.00;67994.34;9970968;29;20059;-68
2021/04/25 13:58:14;;;;;;;0.70;0.38;;;;;;;-146.18;100.00;67994.34;9988138;29;20052;-68
2021/04/25 14:03:10;;;;;;;3.90;0.50;;;;;;;-146.18;100.00;67994.34;9984063;29;20132;-67
2021/04/25 14:08:06;;;;;;;2.25;0.70;;;;;;;-146.18;100.00;67994.34;9989868;29;20058;-68
2021/04/25 14:13:03;;;;;;;1.25;0.35;;;;;;;-146.18;100.00;67994.34;9990055;29;20064;-68
2021/04/25 14:17:59;;;;;;;1.80;0.52;;;;;;;-146.18;100.00;67994.34;9972567;29;20111;-67
2021/04/25 14:22:57;;;;;;;1.75;0.45;;;;;;;-146.18;100.00;67994.34;9990616;29;20102;-67
2021/04/25 14:27:54;;;;;;;2.47;0.60;;;;;;;-146.18;100.00;67994.34;9993539;29;20075;-67
2021/04/25 14:32:52;;;;;;;1.83;0.70;;;;;;;-146.18;100.00;67994.34;9997393;29;20052;-68
2021/04/25 14:37:48;;;;;;;3.35;0.60;;;;;;;-146.18;100.00;67994.34;9995371;29;20052;-66
2021/04/25 14:42:44;;;;;;;2.85;0.60;;;;;;;-146.18;100.00;67994.34;9997522;29;20468;-67
2021/04/25 14:47:40;;;;;;;0.95;0.40;;;;;;;-146.18;100.00;67994.34;9990139;29;20046;-67
2021/04/25 14:52:36;;;;;;;4.00;0.70;;;;;;;-146.18;100.00;67994.34;9990551;29;20044;-68
2021/04/25 14:57:33;;;;;;;1.52;0.50;;;;;;;-146.18;100.00;67994.34;9989055;29;20060;-67
2021/04/25 15:02:29;;;;;;;3.05;0.52;;;;;;;-146.18;100.00;67994.34;9993608;29;20052;-68
2021/04/25 15:07:25;;;;;;;1.90;0.50;;;;;;;-146.18;100.00;67994.34;9994294;29;20055;-67
2021/04/25 15:12:21;;;;;;;5.25;0.70;;;;;;;-146.18;100.00;67994.34;9996975;29;20135;-67
2021/04/25 15:17:17;;;;;;;1.50;0.52;;;;;;;-146.18;100.00;67994.34;9996866;29;20155;-67
2021/04/25 15:22:15;;;;;;;2.47;0.88;;;;;;;-146.18;100.00;67994.34;9994558;29;20103;-65
2021/04/25 15:27:11;;;;;;;2.80;0.50;;;;;;;-146.18;100.00;67994.34;9986448;29;20115;-67
2021/04/25 15:32:07;;;;;;;4.20;0.82;;;;;;;-146.18;100.00;67994.34;9995371;29;20726;-68
2021/04/25 15:37:03;;;;;;;1.95;0.70;;;;;;;-146.18;100.00;67994.34;9991603;29;20051;-67
2021/04/25 15:41:59;;;;;;;3.03;0.70;;;;;;;-146.18;100.00;67994.34;9990620;29;20052;-65
2021/04/25 15:46:55;;;;;;;2.58;0.60;;;;;;;-146.18;100.00;67994.34;9991587;29;20585;-67
2021/04/25 15:51:52;;;;;;;3.75;0.50;;;;;;;-146.18;100.00;67994.34;9992624;29;20056;-66
2021/04/25 15:56:48;;;;;;;2.65;0.70;;;;;;;-146.18;100.00;67994.34;9995241;29;20107;-69
2021/04/25 16:01:44;;;;;;;2.17;0.50;;;;;;;-146.18;100.00;67994.34;9995416;29;20072;-69
2021/04/25 16:06:40;;;;;;;1.10;0.50;;;;;;;-146.18;100.00;67994.34;9994119;29;20122;-69
2021/04/25 16:11:36;;;;;;;2.22;0.47;;;;;;;-146.18;100.00;67994.34;9997070;29;20048;-69
2021/04/25 16:16:32;;;;;;;4.80;0.52;;;;;;;-146.18;100.00;67994.34;9995736;29;20104;-67
2021/04/25 16:21:28;;;;;;;1.67;0.50;;;;;;;-146.18;100.00;67994.34;9990445;29;20761;-67
2021/04/25 16:26:24;;;;;;;1.92;0.50;;;;;;;-146.18;100.00;67994.34;9993012;29;20051;-66
2021/04/25 16:31:21;;;;;;;2.38;0.70;;;;;;;-146.18;100.00;67994.34;9986620;29;20061;-69
2021/04/25 16:36:17;;;;;;;1.20;0.60;;;;;;;-146.18;100.00;67994.34;9990708;29;20051;-67
2021/04/25 16:41:13;;;;;;;2.03;0.50;;;;;;;-146.18;100.00;67994.34;9994054;29;20577;-67
2021/04/25 16:46:10;;;;;;;2.03;0.60;;;;;;;-146.18;100.00;67994.34;9993347;29;20116;-69
2021/04/25 16:51:09;;;;;;;1.23;0.40;;;;;;;-146.18;100.00;67994.34;9993797;29;20147;-67
2021/04/25 16:56:06;;;;;;;6.53;1.00;;;;;;;-146.18;100.00;67994.34;9989646;29;20048;-68
2021/04/25 17:01:02;;;;;;;3.92;0.60;;;;;;;-146.18;100.00;67994.34;9992680;29;20056;-67
2021/04/25 17:05:59;;;;;;;2.42;0.70;;;;;;;-146.18;100.00;67994.34;9991527;29;20055;-70
2021/04/25 17:10:57;;;;;;;2.58;0.65;;;;;;;-146.18;100.00;67994.34;9990048;29;20111;-67
2021/04/25 17:15:53;;;;;;;3.63;0.80;;;;;;;-146.18;100.00;67994.34;9993107;29;20051;-67
2021/04/25 17:20:50;;;;;;;1.02;0.43;;;;;;;-146.18;100.00;67994.34;9991478;29;20079;-67
2021/04/25 17:25:46;;;;;;;4.32;0.95;;;;;;;-146.18;100.00;67994.34;9992525;29;20103;-67
2021/04/25 17:30:42;;;;;;;2.40;0.70;;;;;;;-146.18;100.00;67994.34;9991613;29;20486;-66
2021/04/25 17:35:38;;;;;;;1.30;0.50;;;;;;;-146.18;100.00;67994.34;9988322;29;20075;-68
2021/04/25 17:40:34;;;;;;;2.50;0.68;;;;;;;-146.18;100.00;67994.34;9992180;29;20048;-68
2021/04/25 17:45:30;;;;;;;1.23;0.50;;;;;;;-146.18;100.00;67994.34;9988332;29;20108;-67
2021/04/25 17:50:31;;;;;;;4.90;0.75;;;;;;;-146.18;100.00;67994.34;9993726;29;20059;-67
2021/04/25 17:55:27;;;;;;;3.75;0.70;;;;;;;-146.18;100.00;67994.34;9990796;29;20044;-67
2021/04/25 18:00:26;;;;;;;2.70;0.50;;;;;;;-146.18;100.00;67994.34;9981444;29;20444;-70
2021/04/25 18:05:22;;;;;;;2.85;0.90;;;;;;;-146.18;100.00;67994.34;9988657;29;20048;-65
2021/04/25 18:10:25;;;;;;;2.33;0.77;;;;;;;-146.18;100.00;67994.34;9992093;29;20044;-69
2021/04/25 18:15:21;;;;;;;3.67;0.73;;;;;;;-146.18;100.00;67994.34;9983864;29;20076;-69
2021/04/25 18:20:18;;;;;;;2.17;0.60;;;;;;;-146.18;100.00;67994.34;9989181;29;20060;-66
2021/04/25 18:25:15;;;;;;;4.13;0.55;;;;;;;-146.18;100.00;67994.34;9987176;29;20504;-67
2021/04/25 18:30:16;;;;;;;2.03;0.60;;;;;;;-146.18;100.00;67994.34;9982777;29;22721;-67
2021/04/25 18:35:16;;;;;;;2.85;1.08;;;;;;;-146.18;100.00;67994.34;9983056;29;20049;-68
2021/04/25 18:40:21;;;;;;;2.67;0.88;;;;;;;-146.18;100.00;67994.34;9981085;29;20083;-68
2021/04/25 18:45:23;;;;;;;4.10;0.95;;;;;;;-146.18;100.00;67994.34;9993115;29;20062;-68
2021/04/25 18:50:38;;;;;;;4.70;0.82;;;;;;;-146.18;100.00;67994.34;9991005;29;20063;-67
2021/04/25 18:55:36;;;;;;;3.00;0.90;;;;;;;-146.18;100.00;67994.34;9985020;29;20067;-66
2021/04/25 19:00:44;;;;;;;5.95;1.10;;;;;;;-146.18;100.00;67994.34;9989591;29;20092;-68
2021/04/25 19:05:43;;;;;;;4.65;1.17;;;;;;;-146.18;100.00;67994.34;9983003;29;20056;-69
2021/04/25 19:10:44;;;;;;;;;;;;;;;-146.18;100.00;67994.34;9988559;29;20040;-68
2021/04/25 19:15:41;;;;;;;3.67;1.17;;;;;;;-146.18;100.00;67994.34;9993720;29;20349;-69
2021/04/25 19:20:43;;;;;;;3.92;1.33;;;;;;;-146.18;100.00;67994.34;9981526;29;20052;-68
2021/04/25 19:25:53;;;;;;;3.05;1.00;;;;;;;-146.18;100.00;67994.34;9995212;29;20104;-67
2021/04/25 19:30:54;;;;;;;2.50;1.00;;;;;;;-146.18;100.00;67994.34;9996714;29;20047;-67
2021/04/25 19:35:55;;;;;;;3.05;1.00;;;;;;;-146.18;100.00;67994.34;9986778;29;20111;-67
2021/04/25 19:40:52;;;;;;;4.57;1.48;;;;;;;-146.18;100.00;67994.34;9994928;29;20533;-68
2021/04/25 19:45:48;;;;;;;3.85;1.23;;;;;;;-146.18;100.00;67994.34;9991194;29;20064;-67
2021/04/25 19:50:58;;;;;;;2.80;0.85;;;;;;;-146.18;100.00;67994.34;9994059;29;20044;-67
2021/04/25 19:55:56;;;;;;;4.35;1.30;;;;;;;-146.18;100.00;67994.34;9989885;29;20170;-66
2021/04/25 20:00:56;;;;;;;6.18;1.27;;;;;;;-146.18;100.00;67994.34;9985826;29;20060;-68
2021/04/25 20:05:53;;;;;;;3.55;1.05;;;;;;;-146.18;100.00;67994.34;9993678;29;20048;-68
2021/04/25 20:10:57;;;;;;;2.15;0.75;;;;;;;-146.18;100.00;67994.34;9990536;29;20143;-69
2021/04/25 20:15:54;;;;;;;2.35;0.88;;;;;;;-146.18;100.00;67994.34;9984667;29;20048;-67
2021/04/25 20:20:57;;;;;;;3.95;0.95;;;;;;;-146.18;100.00;67994.34;9992594;29;20103;-68
2021/04/25 20:26:01;;;;;;;2.75;1.00;;;;;;;-146.18;100.00;67994.34;9994606;29;20463;-68
2021/04/25 20:31:00;;;;;;;3.45;1.50;;;;;;;-146.18;100.00;67994.34;9990116;29;20056;-69
2021/04/25 20:35:57;;;;;;;2.35;0.70;;;;;;;-146.18;100.00;67994.34;9987430;29;20077;-68
2021/04/25 20:40:56;;;;;;;2.53;0.60;;;;;;;-146.18;100.00;67994.34;9995770;29;20074;-69
2021/04/25 20:45:53;;;;;;;2.40;0.68;;;;;;;-146.18;100.00;67994.34;9987858;29;20068;-68
2021/04/25 20:50:52;;;;;;;7.68;1.30;;;;;;;-146.18;100.00;67994.34;9995788;29;20056;-68
2021/04/25 20:55:49;;;;;;;3.22;0.80;;;;;;;-146.18;100.00;67994.34;9977189;29;20048;-68
2021/04/25 21:00:46;;;;;;;3.10;0.98;;;;;;;-146.18;100.00;67994.34;9985457;29;20052;-68
2021/04/25 21:05:55;;;;;;;2.55;0.75;;;;;;;-146.18;100.00;67994.34;9986150;29;20050;-68
2021/04/25 21:10:56;;;;;;;2.78;0.80;;;;;;;-146.18;100.00;67994.34;9994115;29;20476;-68
2021/04/25 21:15:55;;;;;;;3.15;0.82;;;;;;;-146.18;100.00;67994.34;9990244;29;20114;-68
2021/04/25 21:21:05;;;;;;;2.22;0.77;;;;;;;-146.18;100.00;67994.34;9968201;29;20048;-66
2021/04/25 21:26:04;;;;;;;4.13;1.08;;;;;;;-146.18;100.00;67994.34;9986192;29;20045;-68
2021/04/25 21:31:03;;;;;;;3.20;0.73;;;;;;;-146.18;100.00;67994.34;9980434;29;20055;-68
2021/04/25 21:36:02;;;;;;;3.88;1.00;;;;;;;-146.18;100.00;67994.34;9979990;29;20177;-69
2021/04/25 21:40:59;;;;;;;4.32;0.90;;;;;;;-146.18;100.00;67994.34;9992672;29;20087;-67
2021/04/25 21:45:58;;;;;;;4.68;0.88;;;;;;;-146.18;100.00;67994.34;9972568;29;20062;-69
2021/04/25 21:51:03;;;;;;;3.97;0.85;;;;;;;-146.18;100.00;67994.34;9981888;29;20446;-67
2021/04/25 21:56:07;;;;;;;6.82;1.02;;;;;;;-146.18;100.00;67994.34;9995285;29;20063;-69
2021/04/25 22:01:07;;;;;;;6.25;0.80;;;;;;;-146.18;100.00;67994.34;9982620;29;20538;-68
2021/04/25 22:06:10;;;;;;;4.25;0.93;;;;;;;-146.18;100.00;67994.34;9986901;29;20078;-67
2021/04/25 22:11:14;;;;;;;4.25;1.00;;;;;;;-146.18;100.00;67994.34;9992086;29;20075;-67
2021/04/25 22:16:19;;;;;;;4.53;1.02;;;;;;;-146.18;100.00;67994.34;9985925;29;20056;-69
2021/04/25 22:21:19;;;;;;;2.80;0.80;;;;;;;-146.18;100.00;67994.34;9981853;29;20124;-68
2021/04/25 22:26:18;;;;;;;4.22;0.70;;;;;;;-146.18;100.00;67994.34;9988651;29;20055;-65
2021/04/25 22:31:17;;;;;;;4.05;0.95;;;;;;;-146.18;100.00;67994.34;9988524;29;20523;-68
2021/04/25 22:36:17;;;;;;;3.80;0.73;;;;;;;-146.18;100.00;67994.34;9984851;29;20059;-68